Map

Track Data

SID SEASON NUMBER BASIN SUBBASIN NAME ISO_TIME NATURE LAT LON WMO_WIND WMO_PRES WMO_AGENCY TRACK_TYPE DIST2LAND LANDFALL IFLAG USA_AGENCY USA_ATCF_ID USA_LAT USA_LON USA_RECORD USA_STATUS USA_WIND USA_PRES USA_SSHS USA_R34_NE USA_R34_SE USA_R34_SW USA_R34_NW USA_R50_NE USA_R50_SE USA_R50_SW USA_R50_NW USA_R64_NE USA_R64_SE USA_R64_SW USA_R64_NW USA_POCI USA_ROCI USA_RMW USA_EYE TOKYO_LAT TOKYO_LON TOKYO_GRADE TOKYO_WIND TOKYO_PRES TOKYO_R50_DIR TOKYO_R50_LONG TOKYO_R50_SHORT TOKYO_R30_DIR TOKYO_R30_LONG TOKYO_R30_SHORT TOKYO_LAND CMA_LAT CMA_LON CMA_CAT CMA_WIND CMA_PRES HKO_LAT HKO_LON HKO_CAT HKO_WIND HKO_PRES NEWDELHI_LAT NEWDELHI_LON NEWDELHI_GRADE NEWDELHI_WIND NEWDELHI_PRES NEWDELHI_CI NEWDELHI_DP NEWDELHI_POCI REUNION_LAT REUNION_LON REUNION_TYPE REUNION_WIND REUNION_PRES REUNION_TNUM REUNION_CI REUNION_RMW REUNION_R34_NE REUNION_R34_SE REUNION_R34_SW REUNION_R34_NW REUNION_R50_NE REUNION_R50_SE REUNION_R50_SW REUNION_R50_NW REUNION_R64_NE REUNION_R64_SE REUNION_R64_SW REUNION_R64_NW BOM_LAT BOM_LON BOM_TYPE BOM_WIND BOM_PRES BOM_TNUM BOM_CI BOM_RMW BOM_R34_NE BOM_R34_SE BOM_R34_SW BOM_R34_NW BOM_R50_NE BOM_R50_SE BOM_R50_SW BOM_R50_NW BOM_R64_NE BOM_R64_SE BOM_R64_SW BOM_R64_NW BOM_ROCI BOM_POCI BOM_EYE BOM_POS_METHOD BOM_PRES_METHOD NADI_LAT NADI_LON NADI_CAT NADI_WIND NADI_PRES WELLINGTON_LAT WELLINGTON_LON WELLINGTON_WIND WELLINGTON_PRES DS824_LAT DS824_LON DS824_STAGE DS824_WIND DS824_PRES TD9636_LAT TD9636_LON TD9636_STAGE TD9636_WIND TD9636_PRES TD9635_LAT TD9635_LON TD9635_WIND TD9635_PRES TD9635_ROCI NEUMANN_LAT NEUMANN_LON NEUMANN_CLASS NEUMANN_WIND NEUMANN_PRES MLC_LAT MLC_LON MLC_CLASS MLC_WIND MLC_PRES USA_GUST BOM_GUST BOM_GUST_PER REUNION_GUST REUNION_GUST_PER USA_SEAHGT USA_SEARAD_NE USA_SEARAD_SE USA_SEARAD_SW USA_SEARAD_NW STORM_SPEED STORM_DIR
1947356N08141 1947 101 WP MM JEAN 1947-12-22 00:00:00 TS 8.20000 140.800 main 1135 1132 O________OOO__ jtwc_wp WP271947 8.20000 140.800 55 0 8.20000 140.800 TC 55 8.20000 140.800 2 55 8.20000 140.800 55 995 420 10 294
1947356N08141 1947 101 WP MM JEAN 1947-12-22 03:00:00 TS 8.40422 140.340 main 1140 1135 P________PPP__ WP271947 8.41016 140.328 57 0 8.41016 140.328 TC 57 8.38640 140.379 2 58 8.41016 140.328 57 993 390 10 294
1947356N08141 1947 101 WP MM JEAN 1947-12-22 06:00:00 TS 8.59202 139.916 main 1142 1138 O________OPO__ jtwc_wp WP271947 8.60000 139.900 60 0 8.60000 139.900 TC 60 8.56806 139.965 2 62 8.60000 139.900 60 992 360 9 294
1947356N08141 1947 101 WP MM JEAN 1947-12-22 09:00:00 TS 8.75322 139.549 main 1147 1139 P________PPP__ WP271947 8.75740 139.542 65 1 8.75740 139.542 TC 65 8.74068 139.570 2 66 8.75740 139.542 65 991 330 8 294
1947356N08141 1947 101 WP MM JEAN 1947-12-22 12:00:00 TS 8.90000 139.200 main 1146 1143 O________OOO__ jtwc_wp WP271947 8.90000 139.200 70 1 8.90000 139.200 TC 70 8.90000 139.200 3 70 8.90000 139.200 70 990 300 8 292
1947356N08141 1947 101 WP MM JEAN 1947-12-22 15:00:00 TS 9.05391 138.809 main 1154 1147 P________PPP__ WP271947 9.05752 138.793 75 1 9.05752 138.793 TC 75 9.04308 138.860 3 72 9.05752 138.793 75 989 330 8 291
1947356N08141 1947 101 WP MM JEAN 1947-12-22 18:00:00 TS 9.19299 138.432 main 1151 1148 O________OPO__ jtwc_wp WP271947 9.20000 138.400 80 1 9.20000 138.400 TC 80 9.17197 138.530 3 75 9.20000 138.400 80 988 360 7 290
1947356N08141 1947 101 WP MM JEAN 1947-12-22 21:00:00 TS 9.30298 138.132 main 1154 1151 P________PPP__ WP271947 9.30734 138.115 80 1 9.30734 138.115 TC 80 9.28990 138.185 3 77 9.30734 138.115 80 986 360 7 288
1947356N08141 1947 101 WP MM JEAN 1947-12-23 00:00:00 TS 9.40000 137.800 main 1157 1153 O________OOO__ jtwc_wp WP271947 9.40000 137.800 80 1 9.40000 137.800 TC 80 9.40000 137.800 4 80 9.40000 137.800 80 985 360 8 284
1947356N08141 1947 101 WP MM JEAN 1947-12-23 03:00:00 TS 9.49969 137.343 main 1158 1153 P________PPP__ WP271947 9.50004 137.330 80 1 9.50004 137.330 TC 80 9.49865 137.383 4 80 9.50004 137.330 80 984 330 10 282
1947356N08141 1947 101 WP MM JEAN 1947-12-23 06:00:00 TS 9.59795 136.830 main 1142 1101 O________OPO__ jtwc_wp WP271947 9.60000 136.800 80 1 9.60000 136.800 TC 80 9.59179 136.919 4 80 9.60000 136.800 80 983 300 10 280
1947356N08141 1947 101 WP MM JEAN 1947-12-23 09:00:00 TS 9.68019 136.352 main 1101 1038 P________PPP__ WP271947 9.67724 136.337 80 1 9.67724 136.337 TC 80 9.68906 136.396 4 80 9.67724 136.337 80 983 360 10 281
1947356N08141 1947 101 WP MM JEAN 1947-12-23 12:00:00 TS 9.80000 135.800 main 1038 969 O________OOO__ jtwc_wp WP271947 9.80000 135.800 80 1 9.80000 135.800 TC 80 9.80000 135.800 4 80 9.80000 135.800 80 984 420 13 286
1947356N08141 1947 101 WP MM JEAN 1947-12-23 15:00:00 TS 10.0262 135.091 main 969 901 P________PPP__ WP271947 10.0576 135.088 75 1 10.0576 135.088 TC 75 9.93206 135.102 4 77 10.0576 135.088 75 984 450 15 287
1947356N08141 1947 101 WP MM JEAN 1947-12-23 18:00:00 TS 10.2446 134.309 main 891 818 O________OPO__ jtwc_wp WP271947 10.3000 134.300 70 1 10.3000 134.300 TC 70 10.0782 134.338 4 75 10.3000 134.300 70 985 480 15 281
1947356N08141 1947 101 WP MM JEAN 1947-12-23 21:00:00 TS 10.3268 133.551 main 818 735 P________PPP__ WP271947 10.3573 133.550 70 1 10.3573 133.550 TC 70 10.2352 133.555 4 72 10.3573 133.550 70 986 450 15 276
1947356N08141 1947 101 WP MM JEAN 1947-12-24 00:00:00 TS 10.4000 132.800 main 735 665 O________OOO__ jtwc_wp WP271947 10.4000 132.800 70 1 10.4000 132.800 TC 70 10.4000 132.800 4 70 10.4000 132.800 70 987 420 15 280
1947356N08141 1947 101 WP MM JEAN 1947-12-24 03:00:00 TS 10.5795 132.044 main 654 597 P________PPP__ WP271947 10.5851 132.013 70 1 10.5851 132.013 TC 70 10.5630 132.139 4 71 10.5851 132.013 70 987 480 15 285
1947356N08141 1947 101 WP MM JEAN 1947-12-24 06:00:00 TS 10.7835 131.353 main 597 538 O________OPO__ jtwc_wp WP271947 10.8000 131.300 70 1 10.8000 131.300 TC 70 10.7340 131.512 4 72 10.8000 131.300 70 988 540 13 287
1947356N08141 1947 101 WP MM JEAN 1947-12-24 09:00:00 TS 10.9405 130.815 main 538 491 P________PPP__ WP271947 10.9496 130.785 72 1 10.9496 130.785 TC 72 10.9131 130.904 4 73 10.9496 130.785 72 986 510 11 287
1947356N08141 1947 101 WP MM JEAN 1947-12-24 12:00:00 TS 11.1000 130.300 main 491 427 O________OOO__ jtwc_wp WP271947 11.1000 130.300 75 1 11.1000 130.300 TC 75 11.1000 130.300 4 75 11.1000 130.300 75 984 480 12 287
1947356N08141 1947 101 WP MM JEAN 1947-12-24 15:00:00 TS 11.2894 129.674 main 427 364 P________PPP__ WP271947 11.2925 129.665 80 1 11.2925 129.665 TC 80 11.2798 129.703 4 80 11.2925 129.665 80 982 450 13 287
1947356N08141 1947 101 WP MM JEAN 1947-12-24 18:00:00 TS 11.4922 129.025 main 353 294 O________OPO__ jtwc_wp WP271947 11.5000 129.000 85 2 11.5000 129.000 TC 85 11.4687 129.101 4 85 11.5000 129.000 85 980 420 13 288
1947356N08141 1947 101 WP MM JEAN 1947-12-24 21:00:00 TS 11.6876 128.413 main 294 240 P________PPP__ WP271947 11.6923 128.392 90 2 11.6923 128.392 TC 90 11.6734 128.474 4 90 11.6923 128.392 90 980 450 13 289
1947356N08141 1947 101 WP MM JEAN 1947-12-25 00:00:00 TS 11.9000 127.800 main 240 185 O________OOO__ jtwc_wp WP271947 11.9000 127.800 95 2 11.9000 127.800 TC 95 11.9000 127.800 4 95 11.9000 127.800 95 981 480 13 291
1947356N08141 1947 101 WP MM JEAN 1947-12-25 03:00:00 TS 12.1339 127.214 main 185 121 P________PPP__ WP271947 12.1344 127.260 95 2 12.1344 127.260 TC 95 12.1325 127.078 4 93 12.1344 127.260 95 977 450 13 292
1947356N08141 1947 101 WP MM JEAN 1947-12-25 06:00:00 TS 12.3972 126.526 main 110 48 O________OPO__ jtwc_wp WP271947 12.4000 126.600 95 2 12.4000 126.600 TC 95 12.3890 126.303 4 92 12.4000 126.600 95 973 420 17 289
1947356N08141 1947 101 WP MM JEAN 1947-12-25 09:00:00 TS 12.6772 125.620 main 46 31 P________PPP__ WP271947 12.6776 125.667 92 2 12.6776 125.667 TC 92 12.6759 125.477 4 91 12.6776 125.667 92 973 420 20 288
1947356N08141 1947 101 WP MM JEAN 1947-12-25 12:00:00 TS 13.0000 124.600 main 54 0 O________OOO__ jtwc_wp WP271947 13.0000 124.600 90 2 13.0000 124.600 TC 90 13.0000 124.600 4 90 13.0000 124.600 90 974 420 21 289
1947356N08141 1947 101 WP MM JEAN 1947-12-25 15:00:00 TS 13.3699 123.555 main 0 0 P________PPP__ WP271947 13.3849 123.535 87 2 13.3849 123.535 TC 87 13.3247 123.614 4 85 13.3849 123.535 87 974 420 22 291
1947356N08141 1947 101 WP MM JEAN 1947-12-25 18:00:00 TS 13.7724 122.522 main 0 0 O________OPO__ jtwc_wp WP271947 13.8000 122.500 85 2 13.8000 122.500 TC 85 13.6896 122.590 4 80 13.8000 122.500 85 975 420 21 292
1947356N08141 1947 101 WP MM JEAN 1947-12-25 21:00:00 TS 14.1602 121.565 main 0 0 P________PPP__ WP271947 14.1771 121.554 77 1 14.1771 121.554 TC 77 14.1093 121.595 4 75 14.1771 121.554 77 975 390 20 295
1947356N08141 1947 101 WP MM JEAN 1947-12-26 00:00:00 TS 14.6000 120.700 main 10 0 O________OOO__ jtwc_wp WP271947 14.6000 120.700 70 1 14.6000 120.700 TC 70 14.6000 120.700 4 70 14.6000 120.700 70 976 360 19 300
1947356N08141 1947 101 WP MM JEAN 1947-12-26 03:00:00 TS 15.1173 119.884 main 21 21 P________PPP__ WP271947 15.0974 119.882 70 1 15.0974 119.882 TC 70 15.1771 119.888 4 70 15.0974 119.882 70 977 360 18 308
1947356N08141 1947 101 WP MM JEAN 1947-12-26 06:00:00 TS 15.7310 119.199 main 63 57 O________OPO__ jtwc_wp WP271947 15.7000 119.200 70 1 15.7000 119.200 TC 70 15.8240 119.195 4 70 15.7000 119.200 70 978 360 18 318
1947356N08141 1947 101 WP MM JEAN 1947-12-26 09:00:00 TS 16.4589 118.648 main 129 129 P________PPP__ WP271947 16.4423 118.645 70 1 16.4423 118.645 TC 70 16.5089 118.654 4 70 16.4423 118.645 70 978 360 17 330
1947356N08141 1947 101 WP MM JEAN 1947-12-26 12:00:00 TS 17.2000 118.300 main 188 188 O________OOO__ jtwc_wp WP271947 17.2000 118.300 70 1 17.2000 118.300 TC 70 17.2000 118.300 4 70 17.2000 118.300 70 979 360 15 340
1947356N08141 1947 101 WP MM JEAN 1947-12-26 15:00:00 TS 17.8214 118.127 main 234 234 P________PPP__ WP271947 17.8073 118.160 65 1 17.8073 118.160 TC 65 17.8636 118.030 4 66 17.8073 118.160 65 979 330 12 353
1947356N08141 1947 101 WP MM JEAN 1947-12-26 18:00:00 TS 18.4315 118.140 main 249 249 O________OPO__ jtwc_wp WP271947 18.4000 118.200 60 0 18.4000 118.200 TC 60 18.5259 117.959 4 62 18.4000 118.200 60 980 300 13 2
1947356N08141 1947 101 WP MM JEAN 1947-12-26 21:00:00 TS 19.1296 118.184 main 264 264 P________PPP__ WP271947 19.1143 118.208 57 0 19.1143 118.208 TC 57 19.1755 118.109 4 58 19.1143 118.208 57 980 360 14 14
1947356N08141 1947 101 WP MM JEAN 1947-12-27 00:00:00 TS 19.8000 118.500 main 270 237 O________OOO__ jtwc_wp WP271947 19.8000 118.500 55 0 19.8000 118.500 TC 55 19.8000 118.500 2 55 19.8000 118.500 55 981 420 16 40
1947356N08141 1947 101 WP MM JEAN 1947-12-27 03:00:00 TS 20.3219 119.253 main 230 133 P________PPP__ WP271947 20.3159 119.295 52 0 20.3159 119.295 TC 52 20.3400 119.126 2 51 20.3159 119.295 52 981 390 19 58
1947356N08141 1947 101 WP MM JEAN 1947-12-27 06:00:00 TS 20.8144 120.221 main 133 67 O________OPO__ jtwc_wp WP271947 20.8000 120.300 50 0 20.8000 120.300 TC 50 20.8577 119.982 2 47 20.8000 120.300 50 982 360 20 60
1947356N08141 1947 101 WP MM JEAN 1947-12-27 09:00:00 TS 21.3426 121.123 main 70 60 P________PPP__ WP271947 21.3247 121.174 45 0 21.3247 121.174 TC 45 21.3961 120.972 2 43 21.3247 121.174 45 983 330 20 54
1947356N08141 1947 101 WP MM JEAN 1947-12-27 12:00:00 TS 22.0000 122.000 main 113 113 O________OOO__ jtwc_wp WP271947 22.0000 122.000 40 0 22.0000 122.000 TC 40 22.0000 122.000 2 40 22.0000 122.000 40 984 300 22 43
1947356N08141 1947 101 WP MM JEAN 1947-12-27 15:00:00 TS 22.9464 122.733 main 134 134 P________PPP__ WP271947 22.9985 122.705 40 0 22.9985 122.705 TC 40 22.7904 122.816 2 40 22.9985 122.705 40 984 240 24 37
1947356N08141 1947 101 WP MM JEAN 1947-12-27 18:00:00 TS 23.9104 123.542 main 175 175 O________OPO__ jtwc_wp WP271947 24.0000 123.500 40 0 24.0000 123.500 TC 40 23.6415 123.669 2 40 24.0000 123.500 40 985 180 24 44
1947356N08141 1947 101 WP MM JEAN 1947-12-27 21:00:00 TS 24.6506 124.530 main 254 254 P________PPP__ WP271947 24.7100 124.493 40 0 24.7100 124.493 TC 40 24.4723 124.638 2 40 24.7100 124.493 40 985 150 24 58
1947356N08141 1947 101 WP MM JEAN 1947-12-28 00:00:00 TS 25.2000 125.800 main 383 383 O________OOO__ jtwc_wp WP271947 25.2000 125.800 40 0 25.2000 125.800 TC 40 25.2000 125.800 2 40 25.2000 125.800 40 986 120 28 72
1947356N08141 1947 101 WP MM JEAN 1947-12-28 03:00:00 TS 25.5139 127.495 main 555 555 P________PPP__ WP271947 25.4675 127.551 40 0 25.4675 127.551 TC 40 25.6532 127.326 2 40 25.4675 127.551 40 986 150 32 80
1947356N08141 1947 101 WP MM JEAN 1947-12-28 06:00:00 TS 25.7732 129.308 main 596 535 O________OPO__ jtwc_wp WP271947 25.7000 129.400 40 0 25.7000 129.400 TC 40 25.9927 129.030 2 40 25.7000 129.400 40 987 180 32 77
1947356N08141 1947 101 WP MM JEAN 1947-12-28 09:00:00 TS 26.2039 130.951 main 536 504 P________PPP__ WP271947 26.1688 131.011 40 0 26.1688 131.011 TC 40 26.3093 130.768 2 40 26.1688 131.011 40 987 150 29 72
1947356N08141 1947 101 WP MM JEAN 1947-12-28 12:00:00 TS 26.7000 132.400 main 507 503 O________OOO__ jtwc_wp WP271947 26.7000 132.400 40 0 26.7000 132.400 TC 40 26.7000 132.400 2 40 26.7000 132.400 40 988 120 25 69
1947356N08141 1947 101 WP MM JEAN 1947-12-28 15:00:00 TS 27.1200 133.558 main 518 514 P________PPP__ WP271947 27.0788 133.470 40 0 27.0788 133.470 TC 40 27.2436 133.822 2 40 27.0788 133.470 40 989 90 22 64
1947356N08141 1947 101 WP MM JEAN 1947-12-28 18:00:00 TS 27.6805 134.642 main 515 515 O________OPO__ jtwc_wp WP271947 27.6000 134.500 40 0 27.6000 134.500 TC 40 27.9222 135.070 2 40 27.6000 134.500 40 990 60 25 56
1947356N08141 1947 101 WP MM JEAN 1947-12-28 21:00:00 TS 28.5121 135.901 main 540 462 P________PPP__ WP271947 28.4527 135.798 40 0 28.4527 135.798 TC 40 28.6904 136.208 2 40 28.4527 135.798 40 990 60 30 52
1947356N08141 1947 101 WP MM JEAN 1947-12-29 00:00:00 TS 29.5000 137.300 main 457 O________OOO__ jtwc_wp WP271947 29.5000 137.300 40 0 29.5000 137.300 TC 40 29.5000 137.300 2 40 29.5000 137.300 40 991 60 31 51

Digital Typhoon Data and Search

About IBTrACS Database

This database is a web-friendly format of International Best Track Archive for Climate Stewardship (IBTrACS), a global best track data archive curated by NOAA dating back to 1842.

Updated: 2021-11-26